createdAt,value
2019-04-26T00:00:25.733Z,14.80
2019-04-26T00:02:59.386Z,14.80
2019-04-26T00:05:35.454Z,14.70
2019-04-26T00:08:00.155Z,14.60
2019-04-26T00:10:54.274Z,14.60
2019-04-26T00:16:59.966Z,14.40
2019-04-26T00:19:29.733Z,14.40
2019-04-26T00:21:59.448Z,14.30
2019-04-26T00:24:30.775Z,14.30
2019-04-26T00:27:00.947Z,14.40
2019-04-26T00:29:30.312Z,14.40
2019-04-26T00:32:00.934Z,14.30
2019-04-26T00:34:30.221Z,14.30
2019-04-26T00:36:59.491Z,14.20
2019-04-26T00:39:28.757Z,14.10
2019-04-26T00:41:59.062Z,14.10
2019-04-26T00:44:28.646Z,14.00
2019-04-26T00:47:00.362Z,14.00
2019-04-26T00:49:42.739Z,14.00
2019-04-26T00:52:02.610Z,14.00
2019-04-26T00:54:32.861Z,14.00
2019-04-26T00:57:03.619Z,13.90
2019-04-26T00:59:34.355Z,14.00
2019-04-26T01:02:09.864Z,14.00
2019-04-26T01:04:39.113Z,13.90
2019-04-26T01:07:08.374Z,13.80
2019-04-26T01:09:37.602Z,13.80
2019-04-26T01:12:06.893Z,13.70
2019-04-26T01:14:36.155Z,13.60
2019-04-26T01:17:06.433Z,13.60
2019-04-26T01:19:37.250Z,13.60
2019-04-26T01:22:09.774Z,13.60
2019-04-26T01:24:42.070Z,13.60
2019-04-26T01:27:12.588Z,13.60
2019-04-26T01:29:44.066Z,13.60
2019-04-26T01:32:13.908Z,13.70
2019-04-26T01:37:34.526Z,13.60
2019-04-26T01:40:09.418Z,13.50
2019-04-26T01:42:49.000Z,13.40
2019-04-26T01:45:25.789Z,13.40
2019-04-26T01:47:58.525Z,13.30
2019-04-26T01:50:31.631Z,13.30
2019-04-26T01:53:01.685Z,13.30
2019-04-26T01:55:32.766Z,13.30
2019-04-26T01:58:05.403Z,13.30
2019-04-26T02:00:43.647Z,13.20
2019-04-26T02:03:19.994Z,13.20
2019-04-26T02:05:49.658Z,13.20
2019-04-26T02:08:19.394Z,13.20
2019-04-26T02:10:49.625Z,13.10
2019-04-26T02:13:18.890Z,13.00
2019-04-26T02:15:48.372Z,12.90
2019-04-26T02:18:18.169Z,12.90
2019-04-26T02:21:03.811Z,12.80
2019-04-26T02:23:55.109Z,12.90
2019-04-26T02:26:35.119Z,12.90
2019-04-26T02:29:15.252Z,12.90
2019-04-26T02:31:47.852Z,12.90
2019-04-26T02:34:17.178Z,12.80
2019-04-26T02:36:58.108Z,12.80
2019-04-26T02:39:20.542Z,12.70
2019-04-26T02:41:52.884Z,12.70
2019-04-26T02:44:28.922Z,12.70
2019-04-26T02:47:32.709Z,12.60
2019-04-26T02:50:06.279Z,12.60
2019-04-26T02:52:44.340Z,12.60
2019-04-26T02:55:27.910Z,12.50
2019-04-26T02:57:58.791Z,12.50
2019-04-26T03:00:29.661Z,12.40
2019-04-26T03:03:06.450Z,12.30
2019-04-26T03:05:39.717Z,12.40
2019-04-26T03:08:20.811Z,12.40
2019-04-26T03:10:59.296Z,12.60
2019-04-26T03:13:56.579Z,12.50
2019-04-26T03:16:40.891Z,12.60
2019-04-26T03:19:34.078Z,12.50
2019-04-26T03:22:44.359Z,12.40
2019-04-26T03:25:40.668Z,12.30
2019-04-26T03:28:39.254Z,12.30
2019-04-26T03:31:28.230Z,12.30
2019-04-26T03:34:13.303Z,12.30
2019-04-26T03:37:27.578Z,12.30
2019-04-26T03:40:12.502Z,12.30
2019-04-26T03:43:21.407Z,12.30
2019-04-26T03:46:33.569Z,12.30
2019-04-26T03:49:54.566Z,12.30
2019-04-26T03:53:01.262Z,12.40
2019-04-26T03:56:23.242Z,12.40
2019-04-26T03:59:16.210Z,12.40
2019-04-26T04:01:55.700Z,12.40
2019-04-26T04:04:46.655Z,12.60
2019-04-26T04:07:35.679Z,12.60
2019-04-26T04:09:54.274Z,12.60
2019-04-26T04:12:33.826Z,12.60
2019-04-26T04:15:13.270Z,12.70
2019-04-26T04:18:00.528Z,12.80
2019-04-26T04:21:28.543Z,12.90
2019-04-26T04:24:16.874Z,12.90
2019-04-26T04:27:00.931Z,13.10
2019-04-26T04:30:01.192Z,13.20
2019-04-26T04:32:54.165Z,13.30
2019-04-26T04:35:26.375Z,13.40
2019-04-26T04:38:09.239Z,13.60
2019-04-26T04:40:54.654Z,13.60
2019-04-26T04:43:38.587Z,13.70
2019-04-26T04:47:24.719Z,13.80
2019-04-26T04:50:08.170Z,13.80
2019-04-26T04:53:18.422Z,14.10
2019-04-26T04:56:37.507Z,14.30
2019-04-26T04:59:12.796Z,14.50
2019-04-26T05:02:17.466Z,14.80
2019-04-26T05:05:12.870Z,15.00
2019-04-26T05:08:06.865Z,15.30
2019-04-26T05:10:47.632Z,15.40
2019-04-26T05:13:45.230Z,15.50
2019-04-26T05:17:10.794Z,15.60
2019-04-26T05:20:12.794Z,15.70
2019-04-26T05:23:21.746Z,15.80
2019-04-26T05:26:47.410Z,15.90
2019-04-26T05:30:05.086Z,15.80
2019-04-26T05:33:14.445Z,15.90
2019-04-26T05:36:04.886Z,15.90
2019-04-26T05:38:58.898Z,15.90
2019-04-26T05:42:21.383Z,15.90
2019-04-26T05:45:19.452Z,16.00
2019-04-26T05:48:10.974Z,16.00
2019-04-26T05:51:24.029Z,16.10
2019-04-26T05:54:50.823Z,16.20
2019-04-26T05:57:43.126Z,16.30
2019-04-26T06:00:42.835Z,16.50
2019-04-26T06:04:41.643Z,16.60
2019-04-26T06:07:56.314Z,16.90
2019-04-26T06:10:49.430Z,17.20
2019-04-26T06:13:41.745Z,17.60
2019-04-26T06:16:38.043Z,18.40
2019-04-26T06:19:22.798Z,19.70
2019-04-26T06:22:07.014Z,21.20
2019-04-26T06:25:24.912Z,23.00
2019-04-26T06:28:05.908Z,24.50
2019-04-26T06:30:55.420Z,26.20
2019-04-26T06:33:43.414Z,27.30
2019-04-26T06:36:22.552Z,28.70
2019-04-26T06:39:25.264Z,29.50
2019-04-26T06:42:25.066Z,29.90
2019-04-26T06:46:00.564Z,31.10
2019-04-26T06:49:17.303Z,31.10
2019-04-26T06:51:51.890Z,31.70
2019-04-26T06:54:33.980Z,32.60
2019-04-26T06:57:59.420Z,32.90
2019-04-26T07:00:44.527Z,33.40
2019-04-26T07:03:51.950Z,32.60
2019-04-26T07:06:34.948Z,31.70
2019-04-26T07:09:09.627Z,32.20
2019-04-26T07:12:27.076Z,32.90
2019-04-26T07:15:12.869Z,33.30
2019-04-26T07:18:21.458Z,34.10
2019-04-26T07:21:19.563Z,34.80
2019-04-26T07:24:32.939Z,34.40
2019-04-26T07:27:16.568Z,34.50
2019-04-26T07:29:58.038Z,33.90
2019-04-26T07:33:08.658Z,34.50
2019-04-26T07:36:12.577Z,34.50
2019-04-26T07:39:34.503Z,35.10
2019-04-26T07:42:45.583Z,35.40
2019-04-26T07:45:44.823Z,35.40
2019-04-26T07:48:41.821Z,36.20
2019-04-26T07:52:08.528Z,37.10
2019-04-26T07:55:12.910Z,36.70
2019-04-26T07:58:28.174Z,37.50
2019-04-26T08:01:14.093Z,37.30
2019-04-26T08:03:56.166Z,36.40
2019-04-26T08:06:43.791Z,36.50
2019-04-26T08:09:26.473Z,35.70
2019-04-26T08:11:51.844Z,35.60
2019-04-26T08:14:32.526Z,35.30
2019-04-26T08:17:27.865Z,35.20
2019-04-26T08:20:13.972Z,35.50
2019-04-26T08:22:54.824Z,36.40
2019-04-26T08:25:23.213Z,37.10
2019-04-26T08:27:57.999Z,35.90
2019-04-26T08:30:30.450Z,34.90
2019-04-26T08:33:10.559Z,35.20
2019-04-26T08:35:44.465Z,34.90
2019-04-26T08:38:21.019Z,34.30
2019-04-26T08:41:07.030Z,34.80
2019-04-26T08:44:11.138Z,34.90
2019-04-26T08:47:06.084Z,35.20
2019-04-26T08:49:41.990Z,36.30
2019-04-26T08:52:15.942Z,37.00
2019-04-26T08:57:24.869Z,36.30
2019-04-26T08:59:58.947Z,35.60
2019-04-26T09:02:55.922Z,35.00
2019-04-26T09:06:02.324Z,34.60
2019-04-26T09:08:39.219Z,35.10
2019-04-26T09:11:09.481Z,35.90
2019-04-26T09:13:44.253Z,36.30
2019-04-26T09:16:19.838Z,36.60
2019-04-26T09:18:54.157Z,36.10
2019-04-26T09:21:28.997Z,33.80
2019-04-26T09:24:08.523Z,32.00
2019-04-26T09:26:49.971Z,30.70
2019-04-26T09:29:37.207Z,29.50
2019-04-26T09:32:15.538Z,28.40
2019-04-26T09:34:56.946Z,28.40
2019-04-26T09:37:28.974Z,28.50
2019-04-26T09:40:10.095Z,28.90
2019-04-26T09:42:54.926Z,28.90
2019-04-26T09:45:52.278Z,29.30
2019-04-26T09:48:31.480Z,29.40
2019-04-26T09:51:00.750Z,29.70
2019-04-26T09:53:30.531Z,29.50
2019-04-26T09:55:59.903Z,29.00
2019-04-26T09:58:30.672Z,28.10
2019-04-26T10:01:00.543Z,27.80
2019-04-26T10:03:34.665Z,28.00
2019-04-26T10:06:08.289Z,28.20
2019-04-26T10:08:47.011Z,28.30
2019-04-26T10:11:18.369Z,28.20
2019-04-26T10:14:08.999Z,28.10
2019-04-26T10:16:48.434Z,28.00
2019-04-26T10:19:31.651Z,28.10
2019-04-26T10:22:02.151Z,28.30
2019-04-26T10:24:31.473Z,27.90
2019-04-26T10:27:03.311Z,28.00
2019-04-26T10:29:32.907Z,27.80
2019-04-26T10:32:02.280Z,27.60
2019-04-26T10:34:35.932Z,27.70
2019-04-26T10:37:06.175Z,28.00
2019-04-26T10:39:37.022Z,28.30
2019-04-26T10:42:06.578Z,28.20
2019-04-26T10:44:39.875Z,27.10
2019-04-26T10:47:07.869Z,27.00
2019-04-26T10:49:42.050Z,26.80
2019-04-26T10:52:53.643Z,26.80
2019-04-26T10:55:49.816Z,26.90
2019-04-26T10:58:25.981Z,26.80
2019-04-26T11:01:01.528Z,26.90
2019-04-26T11:03:30.779Z,27.40
2019-04-26T11:06:00.110Z,27.60
2019-04-26T11:08:29.491Z,27.80
2019-04-26T11:11:00.623Z,27.60
2019-04-26T11:13:30.002Z,27.90
2019-04-26T11:16:02.406Z,28.00
2019-04-26T11:18:31.625Z,28.10
2019-04-26T11:21:01.278Z,27.70
2019-04-26T11:23:30.913Z,27.50
2019-04-26T11:26:01.732Z,27.40
2019-04-26T11:28:31.206Z,27.30
2019-04-26T11:31:00.468Z,27.30
2019-04-26T11:33:29.754Z,26.80
2019-04-26T11:36:03.370Z,26.50
2019-04-26T11:38:32.407Z,26.30
2019-04-26T11:41:06.399Z,26.30
2019-04-26T11:43:33.458Z,26.40
2019-04-26T11:46:04.925Z,26.40
2019-04-26T11:48:34.495Z,26.30
2019-04-26T11:51:06.616Z,26.40
2019-04-26T11:53:36.438Z,26.40
2019-04-26T11:56:05.865Z,26.70
2019-04-26T11:58:35.354Z,26.60
2019-04-26T12:01:06.210Z,26.80
2019-04-26T12:03:35.490Z,27.00
2019-04-26T12:06:23.782Z,27.00
2019-04-26T12:08:59.111Z,27.00
2019-04-26T12:11:34.226Z,27.10
2019-04-26T12:14:00.554Z,27.10
2019-04-26T12:16:31.072Z,27.40
2019-04-26T12:19:03.819Z,27.40
2019-04-26T12:21:34.115Z,27.00
2019-04-26T12:24:06.191Z,27.10
2019-04-26T12:26:42.627Z,26.70
2019-04-26T12:29:10.506Z,26.60
2019-04-26T12:31:37.966Z,26.50
2019-04-26T12:34:10.354Z,26.50
2019-04-26T12:36:39.690Z,26.70
2019-04-26T12:39:09.785Z,26.60
2019-04-26T12:41:41.302Z,26.80
2019-04-26T12:52:55.583Z,25.90
2019-04-26T12:55:27.974Z,25.70
2019-04-26T12:57:58.297Z,25.60
2019-04-26T13:00:33.044Z,25.60
2019-04-26T13:03:03.535Z,25.60
2019-04-26T13:05:32.819Z,25.60
2019-04-26T13:08:03.140Z,25.50
2019-04-26T13:10:52.698Z,25.40
2019-04-26T13:13:37.938Z,25.50
2019-04-26T13:16:10.954Z,25.60
2019-04-26T13:18:41.188Z,25.20
2019-04-26T13:21:12.552Z,25.20
2019-04-26T13:23:41.919Z,25.30
2019-04-26T13:26:11.190Z,25.40
2019-04-26T13:28:40.458Z,25.60
2019-04-26T13:31:09.771Z,25.60
2019-04-26T13:33:39.798Z,25.90
2019-04-26T13:36:09.081Z,25.80
2019-04-26T13:38:39.378Z,26.00
2019-04-26T13:41:09.534Z,26.10
2019-04-26T13:43:40.539Z,25.70
2019-04-26T13:46:27.866Z,25.90
2019-04-26T13:49:18.018Z,26.00
2019-04-26T13:51:46.166Z,26.00
2019-04-26T13:54:16.661Z,25.80
2019-04-26T13:56:47.612Z,25.70
2019-04-26T13:59:16.922Z,25.60
2019-04-26T14:01:46.299Z,25.60
2019-04-26T14:04:15.556Z,25.70
2019-04-26T14:06:45.333Z,25.70
2019-04-26T14:09:16.919Z,25.70
2019-04-26T14:11:46.286Z,25.70
2019-04-26T14:14:16.681Z,25.80
2019-04-26T14:16:46.835Z,25.70
2019-04-26T14:19:16.893Z,25.60
2019-04-26T14:21:46.694Z,25.50
2019-04-26T14:24:37.013Z,25.50
2019-04-26T14:27:15.056Z,25.30
2019-04-26T14:29:43.593Z,25.30
2019-04-26T14:32:12.851Z,25.10
2019-04-26T14:34:45.110Z,25.00
2019-04-26T14:37:15.337Z,25.10
2019-04-26T14:39:50.589Z,25.10
2019-04-26T14:42:15.339Z,25.10
2019-04-26T14:44:49.661Z,25.00
2019-04-26T14:47:17.928Z,24.90
2019-04-26T14:49:46.646Z,25.00
2019-04-26T14:52:15.887Z,25.10
2019-04-26T14:54:46.004Z,24.90
2019-04-26T14:57:22.484Z,24.60
2019-04-26T14:59:56.809Z,24.50
2019-04-26T15:02:47.357Z,24.40
2019-04-26T15:05:49.258Z,24.30
2019-04-26T15:08:18.490Z,24.20
2019-04-26T15:10:49.206Z,24.10
2019-04-26T15:13:23.390Z,24.10
2019-04-26T15:15:53.596Z,24.00
2019-04-26T15:18:22.864Z,24.00
2019-04-26T15:20:53.191Z,23.90
2019-04-26T15:23:23.844Z,23.90
2019-04-26T15:25:54.081Z,23.80
2019-04-26T15:28:23.409Z,23.90
2019-04-26T15:30:52.846Z,24.00
2019-04-26T15:33:24.218Z,24.00
2019-04-26T15:35:56.175Z,24.10
2019-04-26T15:38:25.564Z,24.00
2019-04-26T15:41:26.451Z,24.10
2019-04-26T15:44:07.542Z,24.10
2019-04-26T15:46:55.003Z,24.00
2019-04-26T15:49:45.984Z,24.00
2019-04-26T15:52:15.344Z,23.80
2019-04-26T15:54:44.662Z,23.70
2019-04-26T15:57:14.355Z,23.80
2019-04-26T15:59:54.343Z,23.90
2019-04-26T16:02:23.028Z,23.90
2019-04-26T16:04:54.396Z,23.80
2019-04-26T16:07:27.754Z,23.90
2019-04-26T16:09:57.297Z,24.00
2019-04-26T16:12:27.242Z,24.10
2019-04-26T16:14:56.899Z,24.10
2019-04-26T16:17:27.419Z,24.10
2019-04-26T16:20:00.154Z,24.10
2019-04-26T16:22:30.073Z,24.10
2019-04-26T16:25:04.025Z,24.10
2019-04-26T16:27:32.452Z,24.00
2019-04-26T16:30:09.489Z,24.00
2019-04-26T16:33:00.559Z,24.00
2019-04-26T16:35:29.929Z,23.80
2019-04-26T16:38:06.657Z,23.20
2019-04-26T16:40:32.607Z,22.80
2019-04-26T16:43:02.162Z,22.50
2019-04-26T16:45:37.208Z,22.20
2019-04-26T16:48:04.085Z,22.00
2019-04-26T16:50:37.234Z,21.70
2019-04-26T16:53:04.412Z,21.40
2019-04-26T16:55:37.963Z,21.20
2019-04-26T16:58:07.040Z,20.90
2019-04-26T17:00:50.285Z,20.70
2019-04-26T17:03:08.097Z,20.50
2019-04-26T17:05:47.773Z,20.30
2019-04-26T17:08:10.348Z,20.10
2019-04-26T17:10:39.958Z,19.90
2019-04-26T17:13:09.294Z,19.60
2019-04-26T17:15:38.629Z,19.50
2019-04-26T17:18:10.380Z,19.30
2019-04-26T17:20:40.526Z,19.20
2019-04-26T17:23:30.114Z,19.00
2019-04-26T17:26:23.341Z,18.90
2019-04-26T17:28:55.491Z,18.60
2019-04-26T17:31:24.172Z,18.40
2019-04-26T17:33:54.159Z,18.20
2019-04-26T17:36:23.428Z,18.00
2019-04-26T17:38:52.765Z,17.80
2019-04-26T17:41:22.405Z,17.60
2019-04-26T17:43:56.011Z,17.50
2019-04-26T17:46:22.621Z,17.30
2019-04-26T17:48:52.004Z,17.10
2019-04-26T17:51:23.190Z,17.00
2019-04-26T17:54:20.452Z,16.90
2019-04-26T17:56:26.115Z,16.80
2019-04-26T17:58:56.250Z,16.70
2019-04-26T18:01:41.826Z,16.50
2019-04-26T18:03:57.877Z,16.30
2019-04-26T18:06:29.933Z,16.10
2019-04-26T18:08:58.471Z,15.90
2019-04-26T18:11:27.788Z,15.80
2019-04-26T18:13:57.120Z,15.60
2019-04-26T18:16:29.493Z,15.50
2019-04-26T18:19:17.048Z,15.30
2019-04-26T18:21:59.845Z,15.20
2019-04-26T18:24:32.250Z,15.10
2019-04-26T18:27:00.382Z,15.00
2019-04-26T18:29:30.509Z,14.90
2019-04-26T18:32:03.599Z,14.90
2019-04-26T18:34:36.728Z,14.80
2019-04-26T18:37:07.483Z,14.60
2019-04-26T18:39:37.137Z,14.50
2019-04-26T18:42:06.443Z,14.40
2019-04-26T18:44:39.352Z,14.30
2019-04-26T18:47:20.378Z,14.20
2019-04-26T18:49:57.131Z,14.10
2019-04-26T18:52:26.230Z,14.10
2019-04-26T18:55:16.160Z,14.00
2019-04-26T18:57:47.386Z,13.90
2019-04-26T19:00:26.524Z,13.80
2019-04-26T19:02:55.435Z,13.80
2019-04-26T19:05:29.852Z,13.70
2019-04-26T19:07:56.936Z,13.70
2019-04-26T19:10:29.357Z,13.60
2019-04-26T19:13:00.144Z,13.60
2019-04-26T19:15:49.032Z,13.50
2019-04-26T19:18:24.890Z,13.40
2019-04-26T19:21:16.286Z,13.40
2019-04-26T19:23:45.549Z,13.30
2019-04-26T19:26:15.192Z,13.30
2019-04-26T19:28:44.650Z,13.30
2019-04-26T19:31:13.943Z,13.20
2019-04-26T19:33:43.202Z,13.20
2019-04-26T19:36:13.849Z,13.20
2019-04-26T19:38:49.315Z,13.10
2019-04-26T19:41:17.317Z,13.00
2019-04-26T19:43:47.865Z,12.90
2019-04-26T19:46:27.709Z,12.90
2019-04-26T19:49:15.906Z,12.80
2019-04-26T19:52:16.197Z,12.70
2019-04-26T19:54:51.229Z,12.70
2019-04-26T19:57:23.851Z,12.70
2019-04-26T19:59:53.711Z,12.60
2019-04-26T20:02:26.283Z,12.50
2019-04-26T20:04:54.071Z,12.50
2019-04-26T20:07:24.169Z,12.40
2019-04-26T20:09:56.339Z,12.40
2019-04-26T20:12:29.504Z,12.30
2019-04-26T20:14:58.521Z,12.30
2019-04-26T20:17:30.550Z,12.20
2019-04-26T20:19:59.783Z,12.10
2019-04-26T20:22:31.837Z,12.10
2019-04-26T20:25:05.111Z,12.00
2019-04-26T20:27:35.936Z,12.00
2019-04-26T20:30:08.701Z,12.00
2019-04-26T21:59:06.519Z,10.90
2019-04-26T22:01:35.942Z,10.90
2019-04-26T22:04:06.180Z,11.00
2019-04-26T22:06:35.853Z,11.00
2019-04-26T22:09:19.582Z,11.00
2019-04-26T22:11:49.537Z,11.00
2019-04-26T22:14:27.017Z,10.90
2019-04-26T22:17:07.654Z,10.90
2019-04-26T22:20:06.725Z,10.90
2019-04-26T22:22:49.910Z,10.90
2019-04-26T22:25:22.723Z,10.90
2019-04-26T22:28:00.084Z,10.80
2019-04-26T22:30:28.713Z,10.80
2019-04-26T22:32:58.897Z,10.80
2019-04-26T22:35:28.236Z,10.80
2019-04-26T22:37:57.504Z,10.80
2019-04-26T22:40:26.859Z,10.80
2019-04-26T22:43:05.299Z,10.70
2019-04-26T22:45:46.895Z,10.70
2019-04-26T22:48:29.665Z,10.70
2019-04-26T22:50:59.653Z,10.70
2019-04-26T22:53:29.095Z,10.60
2019-04-26T22:56:01.394Z,10.60
2019-04-26T22:58:29.394Z,10.60
2019-04-26T23:01:03.484Z,10.50
2019-04-26T23:03:29.979Z,10.60
2019-04-26T23:05:59.431Z,10.60
2019-04-26T23:08:30.714Z,10.60
2019-04-26T23:11:02.436Z,10.50
2019-04-26T23:13:37.747Z,10.50
2019-04-26T23:16:33.603Z,10.50
2019-04-26T23:19:31.037Z,10.40
2019-04-26T23:22:00.349Z,10.50
2019-04-26T23:24:29.693Z,10.50
2019-04-26T23:26:58.949Z,10.40
2019-04-26T23:29:28.205Z,10.40
2019-04-26T23:31:57.458Z,10.40
2019-04-26T23:34:26.790Z,10.50
2019-04-26T23:36:56.049Z,10.50
2019-04-26T23:39:25.326Z,10.50
2019-04-26T23:41:54.659Z,10.50
2019-04-26T23:44:24.107Z,10.50
2019-04-26T23:46:54.933Z,10.60
2019-04-26T23:49:25.296Z,10.60
2019-04-26T23:51:54.769Z,10.50
2019-04-26T23:54:27.973Z,10.50
2019-04-26T23:56:57.758Z,10.50
2019-04-26T23:59:25.951Z,10.50
